Dades de l'estació automàtica Vilanova de Meià
Resum diari
14:30 TU| Temperatura mitjana | 13.4 °C | |
|---|---|---|
| Temperatura màxima | 21.4 °C | 13:47 TU |
| Temperatura mínima | 7.9 °C | 4:31 TU |
| Humitat relativa mitjana | 68% | |
| Precipitació acumulada | 0.0 mm | |
| Ratxa màxima del vent (10 m) | 14.8 km/h - 196º | 14:00 TU |
| Pressió atmosfèrica mitjana | 1013.0 hPa | |
El tram horari està expressat en Temps Universal (TU). Cal sumar una hora en horari d'hivern i dues en horari d'estiu per passar a l'hora oficial.
Vilanova de Meià
| Municipi | Vilanova de Meià |
|---|---|
| Comarca | Noguera |
| Altitud | 594 m |
| Data alta | 01.04.1996 |
| Estat actual | Operativa |
| Període TU |
TM °C |
TX °C |
TN °C |
HRM % |
PPT mm |
VVM (10 m) km/h |
DVM (10 m) graus |
VVX (10 m) km/h |
PM hPa |
|---|---|---|---|---|---|---|---|---|---|
| 00:00 - 00:30 | 8.5 | 8.7 | 8.3 | 83 | 0.0 | 2.9 | 6 | 6.8 | 1015.1 |
| 00:30 - 01:00 | 8.3 | 8.4 | 8.3 | 85 | 0.0 | 2.2 | 7 | 5.0 | 1014.8 |
| 01:00 - 01:30 | 8.4 | 8.6 | 8.2 | 88 | 0.0 | 1.4 | 355 | 5.0 | 1014.6 |
| 01:30 - 02:00 | 8.3 | 8.4 | 8.1 | 89 | 0.0 | 2.2 | 1 | 4.0 | 1014.4 |
| 02:00 - 02:30 | 8.2 | 8.3 | 8.1 | 89 | 0.0 | 2.2 | 2 | 4.0 | 1014.6 |
| 02:30 - 03:00 | 8.2 | 8.3 | 8.1 | 89 | 0.0 | 2.5 | 6 | 5.0 | 1014.6 |
| 03:00 - 03:30 | 8.2 | 8.3 | 8.1 | 89 | 0.0 | 2.9 | 7 | 5.0 | 1014.5 |
| 03:30 - 04:00 | 8.2 | 8.3 | 8.1 | 88 | 0.0 | 2.5 | 8 | 5.0 | 1014.4 |
| 04:00 - 04:30 | 8.0 | 8.2 | 7.9 | 90 | 0.0 | 1.8 | 1 | 4.3 | 1014.4 |
| 04:30 - 05:00 | 8.1 | 8.3 | 7.9 | 89 | 0.0 | 2.2 | 2 | 4.3 | 1014.5 |
| 05:00 - 05:30 | 8.2 | 8.4 | 8.1 | 87 | 0.0 | 2.5 | 7 | 5.8 | 1014.6 |
| 05:30 - 06:00 | 8.5 | 8.6 | 8.3 | 86 | 0.0 | 1.8 | 1 | 4.3 | 1014.6 |
| 06:00 - 06:30 | 8.5 | 8.7 | 8.3 | 88 | 0.0 | 1.8 | 8 | 4.3 | 1014.9 |
| 06:30 - 07:00 | 8.9 | 9.3 | 8.7 | 88 | 0.0 | 1.8 | 9 | 3.2 | 1014.8 |
| 07:00 - 07:30 | 11.3 | 13.0 | 9.4 | 82 | 0.0 | 0.7 | 87 | 3.6 | 1014.3 |
| 07:30 - 08:00 | 13.8 | 14.6 | 13.0 | 71 | 0.0 | 2.9 | 183 | 9.0 | 1013.6 |
| 08:00 - 08:30 | 16.1 | 17.4 | 14.0 | 62 | 0.0 | 3.6 | 172 | 11.9 | 1013.0 |
| 08:30 - 09:00 | 17.7 | 18.4 | 17.1 | 56 | 0.0 | 3.2 | 168 | 10.4 | 1012.6 |
| 09:00 - 09:30 | 17.8 | 19.1 | 16.8 | 52 | 0.0 | 4.3 | 162 | 10.4 | 1012.5 |
| 09:30 - 10:00 | 18.7 | 19.3 | 17.6 | 49 | 0.0 | 3.2 | 149 | 9.0 | 1012.2 |
| 10:00 - 10:30 | 18.9 | 19.8 | 17.9 | 48 | 0.0 | 5.4 | 180 | 14.0 | 1011.9 |
| 10:30 - 11:00 | 19.4 | 20.1 | 18.3 | 46 | 0.0 | 3.2 | 202 | 11.9 | 1011.7 |
| 11:00 - 11:30 | 19.2 | 20.4 | 17.9 | 44 | 0.0 | 5.0 | 170 | 12.6 | 1011.4 |
| 11:30 - 12:00 | 18.1 | 18.7 | 17.4 | 47 | 0.0 | 2.5 | 114 | 10.8 | 1011.4 |
| 12:00 - 12:30 | 18.6 | 19.8 | 17.4 | 45 | 0.0 | 3.2 | 155 | 10.4 | 1010.9 |
| 12:30 - 13:00 | 18.6 | 19.5 | 18.1 | 44 | 0.0 | 4.0 | 183 | 11.9 | 1010.7 |
| 13:00 - 13:30 | 18.8 | 19.0 | 18.5 | 43 | 0.0 | 2.2 | 169 | 8.6 | 1010.5 |
| 13:30 - 14:00 | 20.1 | 21.4 | 18.3 | 39 | 0.0 | 4.0 | 163 | 11.5 | 1009.7 |
| 14:00 - 14:30 | 19.2 | 19.6 | 19.0 | 40 | 0.0 | 5.8 | 201 | 14.8 | 1009.6 |
| 14:30 - 15:00 | 19.3 | 20.3 | 19.0 | 40 | 0.0 | 4.7 | 198 | 12.6 | 1009.2 |
Les dades en taronja només han passat un control de qualitat automàtic. Resta pendent la seva validació definitiva.